KISO/ISO METAR and TAF weather

Enter ICAO airport designator
Station Type Date Time Source
KISO METAR 2019/08/26 07:00 UTC NOAA

KISO 260700Z AUTO 01005KT 10SM CLR 19/18 A3008 RMK AO2 T01860175


Station Type Date Time Source
KISO Decoded METAR 2019/08/26 07:00 UTC NOAA

Station name not available
Aug 26, 2019 - 03:00 AM EDT / 2019.08.26 0700 UTC
Wind: from the N (010 degrees) at 6 MPH (5 KT):0
Visibility: 10 mile(s):0
Sky conditions: clear
Temperature: 65.5 F (18.6 C)
Dew Point: 63.5 F (17.5 C)
Relative Humidity: 93%
Pressure (altimeter): 30.08 in. Hg (1018 hPa)
ob: KISO 260700Z AUTO 01005KT 10SM CLR 19/18 A3008 RMK AO2 T01860175
cycle: 7

Station Type Date Time Source
KISO TAF 2019/08/26 06:30 UTC NOAA

TAF KISO 260528Z 2606/2706 03007KT P6SM BKN070
FM260900 02007KT P6SM BKN020
FM261500 02008KT P6SM BKN040
AMD LTD TO CLD VIS AND WIND

Example: see airport list